createdAt,value
2017-07-29T00:02:24.288Z,2.40
2017-07-29T00:04:53.794Z,2.20
2017-07-29T00:07:23.318Z,2.30
2017-07-29T00:09:52.783Z,2.23
2017-07-29T00:12:22.298Z,2.30
2017-07-29T00:14:51.827Z,2.03
2017-07-29T00:17:21.313Z,2.00
2017-07-29T00:19:50.822Z,1.97
2017-07-29T00:22:20.319Z,2.23
2017-07-29T00:24:49.788Z,1.90
2017-07-29T00:27:19.290Z,2.10
2017-07-29T00:29:48.779Z,1.90
2017-07-29T00:32:18.275Z,2.27
2017-07-29T00:34:47.760Z,2.10
2017-07-29T00:37:17.283Z,2.10
2017-07-29T00:39:46.815Z,1.90
2017-07-29T00:42:16.317Z,1.77
2017-07-29T00:44:45.834Z,1.80
2017-07-29T00:47:15.370Z,1.97
2017-07-29T00:49:44.860Z,2.13
2017-07-29T00:52:14.376Z,1.70
2017-07-29T00:54:43.847Z,2.30
2017-07-29T00:57:13.354Z,1.90
2017-07-29T00:59:42.857Z,1.97
2017-07-29T01:02:12.407Z,1.60
2017-07-29T01:04:41.879Z,2.03
2017-07-29T01:07:11.424Z,1.80
2017-07-29T09:24:08.902Z,2.50
2017-07-29T09:26:38.336Z,2.50
2017-07-29T09:29:07.859Z,2.50
2017-07-29T09:31:37.470Z,2.10
2017-07-29T09:34:06.978Z,2.40
2017-07-29T09:36:36.481Z,3.00
2017-07-29T09:39:05.976Z,3.20
2017-07-29T09:41:35.481Z,3.20
2017-07-29T09:44:04.948Z,2.77
2017-07-29T09:46:34.482Z,2.53
2017-07-29T09:49:03.949Z,2.60
2017-07-29T09:51:33.472Z,2.20
2017-07-29T09:54:02.956Z,2.53
2017-07-29T09:56:32.477Z,2.27
2017-07-29T09:59:01.999Z,2.73
2017-07-29T10:01:31.506Z,2.40
2017-07-29T10:04:01.018Z,2.40
2017-07-29T10:06:30.505Z,2.40
2017-07-29T10:09:00.008Z,1.83
2017-07-29T10:11:29.513Z,2.10
2017-07-29T10:13:59.022Z,2.57
2017-07-29T10:16:28.509Z,2.07
2017-07-29T10:18:58.011Z,2.00
2017-07-29T10:21:27.544Z,1.87
2017-07-29T10:23:57.078Z,2.20
2017-07-29T10:26:26.671Z,2.13
2017-07-29T10:28:56.343Z,2.43
2017-07-29T10:31:25.900Z,2.17
2017-07-29T10:33:55.426Z,2.40
2017-07-29T10:36:24.908Z,1.97
2017-07-29T10:38:54.395Z,2.30
2017-07-29T10:41:23.889Z,2.30
2017-07-29T10:43:53.427Z,2.23
2017-07-29T10:46:22.909Z,2.03
2017-07-29T10:48:52.409Z,2.00
2017-07-29T10:51:21.940Z,1.93
2017-07-29T10:53:51.427Z,2.13
2017-07-29T10:56:20.958Z,2.13
2017-07-29T10:58:50.431Z,2.47
2017-07-29T11:01:19.942Z,2.13
2017-07-29T11:03:49.461Z,3.40
2017-07-29T11:06:18.937Z,4.13
2017-07-29T11:08:48.532Z,4.00
2017-07-29T11:11:18.008Z,4.53
2017-07-29T11:13:47.530Z,4.67
2017-07-29T11:16:17.024Z,3.43
2017-07-29T11:18:46.511Z,3.30
2017-07-29T11:21:16.045Z,2.90
2017-07-29T11:23:45.559Z,2.43
2017-07-29T11:26:15.066Z,2.17
2017-07-29T11:28:44.556Z,2.20
2017-07-29T11:31:14.062Z,2.10
2017-07-29T11:33:43.544Z,2.27
2017-07-29T11:36:13.065Z,2.70
2017-07-29T11:38:42.589Z,2.03
2017-07-29T11:41:12.108Z,1.87
2017-07-29T11:43:41.619Z,2.07
2017-07-29T11:46:11.170Z,2.07
2017-07-29T11:48:40.645Z,1.80
2017-07-29T11:51:10.156Z,2.10
2017-07-29T11:53:39.687Z,2.00
2017-07-29T11:56:09.188Z,2.20
2017-07-29T11:58:38.904Z,2.27
2017-07-29T12:01:08.413Z,2.30
2017-07-29T12:03:37.912Z,2.50
2017-07-29T12:06:07.407Z,2.10
2017-07-29T12:08:36.926Z,2.17
2017-07-29T12:11:06.418Z,2.00
2017-07-29T12:13:35.924Z,2.10
2017-07-29T12:16:05.618Z,2.33
2017-07-29T12:18:35.184Z,1.87
2017-07-29T12:21:04.722Z,2.47
2017-07-29T12:23:34.872Z,2.50
2017-07-29T12:26:04.376Z,2.53
2017-07-29T12:28:33.854Z,2.10
2017-07-29T12:31:03.388Z,2.40
2017-07-29T12:33:32.949Z,2.20
2017-07-29T12:36:02.500Z,2.13
2017-07-29T12:38:32.041Z,1.90
2017-07-29T12:41:01.519Z,2.10
2017-07-29T12:43:31.031Z,1.90
2017-07-29T12:46:00.508Z,2.20
2017-07-29T12:48:30.033Z,2.00
2017-07-29T12:50:59.558Z,2.40
2017-07-29T12:53:29.016Z,1.87
2017-07-29T12:55:58.605Z,2.30
2017-07-29T12:58:28.084Z,2.00
2017-07-29T13:00:57.587Z,2.23
2017-07-29T13:03:27.102Z,2.10
2017-07-29T13:05:56.616Z,1.93
2017-07-29T13:08:26.100Z,2.10
2017-07-29T13:10:55.612Z,1.93
2017-07-29T13:13:25.094Z,2.10
2017-07-29T13:15:54.633Z,2.17
2017-07-29T13:18:24.109Z,1.90
2017-07-29T13:20:53.643Z,1.70
2017-07-29T13:23:23.132Z,2.10
2017-07-29T13:25:52.673Z,2.00
2017-07-29T13:28:22.242Z,1.77
2017-07-29T13:30:51.818Z,1.80
2017-07-29T13:33:21.324Z,1.93
2017-07-29T13:35:50.843Z,1.83
2017-07-29T13:38:20.402Z,1.80
2017-07-29T13:40:49.910Z,2.00
2017-07-29T13:43:19.419Z,1.70
2017-07-29T13:45:48.930Z,2.03
2017-07-29T13:48:18.425Z,2.13
2017-07-29T13:50:47.931Z,2.30
2017-07-29T13:53:17.476Z,2.20
2017-07-29T13:55:46.964Z,1.97
2017-07-29T13:58:16.483Z,2.03
2017-07-29T14:00:45.989Z,2.20
2017-07-29T14:03:15.504Z,2.00
2017-07-29T14:05:45.037Z,2.40
2017-07-29T14:08:14.508Z,1.97
2017-07-29T14:10:44.016Z,2.17
2017-07-29T14:13:13.474Z,2.30
2017-07-29T14:15:42.990Z,2.27
2017-07-29T14:18:12.508Z,2.13
2017-07-29T14:20:42.003Z,2.20
2017-07-29T14:23:11.570Z,2.10
2017-07-29T14:25:41.084Z,2.00
2017-07-29T14:28:10.605Z,2.10
2017-07-29T14:30:40.115Z,1.90
2017-07-29T14:33:09.597Z,2.40
2017-07-29T14:35:39.132Z,2.20
2017-07-29T14:38:08.636Z,2.10
2017-07-29T14:40:38.175Z,2.40
2017-07-29T14:43:07.682Z,1.93
2017-07-29T14:45:37.174Z,2.30
2017-07-29T14:48:18.393Z,2.10
2017-07-29T14:50:47.900Z,2.83
2017-07-29T14:53:17.413Z,1.90
2017-07-29T14:55:46.892Z,2.37
2017-07-29T14:58:16.541Z,1.90
2017-07-29T15:00:46.034Z,1.90
2017-07-29T15:03:15.538Z,2.37
2017-07-29T15:05:45.013Z,1.90
2017-07-29T15:08:14.540Z,2.07
2017-07-29T15:10:44.030Z,2.03
2017-07-29T15:13:13.524Z,1.70
2017-07-29T15:15:43.043Z,2.10
2017-07-29T15:18:12.543Z,2.17
2017-07-29T15:20:42.035Z,2.00
2017-07-29T15:23:11.566Z,2.07
2017-07-29T15:25:41.063Z,1.70
2017-07-29T15:28:10.585Z,2.00
2017-07-29T15:30:40.092Z,1.73
2017-07-29T15:33:09.594Z,1.80
2017-07-29T15:35:39.175Z,1.80
2017-07-29T15:38:08.677Z,2.13
2017-07-29T15:40:38.302Z,1.97
2017-07-29T15:43:07.827Z,2.40
2017-07-29T15:45:37.301Z,1.53
2017-07-29T15:48:06.821Z,1.40
2017-07-29T15:50:36.333Z,2.00
2017-07-29T15:53:05.820Z,2.00
2017-07-29T15:55:35.354Z,1.70
2017-07-29T15:58:04.819Z,2.30
2017-07-29T16:00:34.324Z,1.90
2017-07-29T16:03:03.851Z,2.50
2017-07-29T16:05:33.364Z,2.57
2017-07-29T16:08:02.915Z,2.40
2017-07-29T16:10:32.419Z,2.20
2017-07-29T16:13:01.977Z,2.67
2017-07-29T16:15:31.544Z,2.37
2017-07-29T16:18:01.141Z,2.77
2017-07-29T16:20:30.641Z,3.10
2017-07-29T16:23:00.150Z,2.57
2017-07-29T16:25:29.667Z,2.40
2017-07-29T16:27:59.178Z,2.33
2017-07-29T16:30:28.690Z,2.53
2017-07-29T16:32:58.207Z,2.27
2017-07-29T16:35:27.792Z,2.50
2017-07-29T16:37:57.319Z,2.27
2017-07-29T16:40:26.863Z,2.20
2017-07-29T16:42:56.351Z,2.07
2017-07-29T16:45:25.905Z,2.27
2017-07-29T16:47:55.446Z,2.33
2017-07-29T16:50:24.975Z,2.27
2017-07-29T16:52:54.459Z,1.70
2017-07-29T16:55:23.993Z,2.43
2017-07-29T16:57:53.479Z,3.17
2017-07-29T17:00:23.012Z,3.07
2017-07-29T17:02:52.540Z,4.17
2017-07-29T17:05:22.069Z,3.47
2017-07-29T17:07:51.546Z,3.17
2017-07-29T17:10:21.047Z,3.00
2017-07-29T17:12:50.546Z,3.37
2017-07-29T17:15:20.043Z,3.37
2017-07-29T17:17:49.591Z,2.70
2017-07-29T17:20:19.077Z,2.47
2017-07-29T17:22:48.641Z,2.47
2017-07-29T17:25:18.182Z,2.60
2017-07-29T17:27:47.692Z,2.90
2017-07-29T17:30:17.200Z,2.40
2017-07-29T17:32:46.724Z,2.47
2017-07-29T17:35:16.218Z,2.43
2017-07-29T17:37:45.734Z,2.00
2017-07-29T17:40:15.212Z,2.30
2017-07-29T17:42:44.845Z,2.17
2017-07-29T17:45:14.315Z,2.10
2017-07-29T17:47:43.880Z,2.50
2017-07-29T17:50:13.364Z,2.77
2017-07-29T17:52:42.891Z,2.43
2017-07-29T17:55:12.438Z,4.07
2017-07-29T17:57:41.927Z,5.07
2017-07-29T18:00:11.514Z,4.33
2017-07-29T18:02:41.055Z,3.87
2017-07-29T18:05:10.581Z,3.47
2017-07-29T18:07:40.036Z,3.40
2017-07-29T18:10:09.553Z,3.20
2017-07-29T18:12:39.679Z,3.17
2017-07-29T18:15:09.203Z,3.00
2017-07-29T18:17:38.950Z,2.50
2017-07-29T18:20:08.606Z,2.70
2017-07-29T18:22:38.114Z,2.30
2017-07-29T18:25:07.624Z,2.40
2017-07-29T18:27:37.116Z,2.27
2017-07-29T18:30:06.706Z,2.20
2017-07-29T18:32:36.245Z,2.03
2017-07-29T18:35:05.778Z,2.33
2017-07-29T18:37:35.522Z,2.03
2017-07-29T18:40:05.193Z,2.20
2017-07-29T18:42:34.803Z,2.70
2017-07-29T18:45:04.347Z,2.90
2017-07-29T18:47:33.863Z,3.70
2017-07-29T18:50:03.423Z,3.00
2017-07-29T18:52:32.964Z,3.10
2017-07-29T18:55:02.467Z,2.97
2017-07-29T18:57:31.984Z,2.87
2017-07-29T19:00:01.509Z,2.70
2017-07-29T19:02:30.993Z,2.80
2017-07-29T19:05:00.525Z,2.90
2017-07-29T19:07:30.035Z,2.47
2017-07-29T19:10:00.229Z,2.70
2017-07-29T19:12:29.728Z,2.80
2017-07-29T19:14:59.360Z,2.50
2017-07-29T19:17:28.897Z,2.43
2017-07-29T19:19:58.383Z,2.50
2017-07-29T19:22:27.956Z,2.50
2017-07-29T19:24:57.496Z,2.40
2017-07-29T19:27:27.069Z,2.70
2017-07-29T19:29:56.605Z,2.30
2017-07-29T19:32:26.275Z,2.20
2017-07-29T19:34:55.784Z,2.30
2017-07-29T19:37:25.265Z,2.60
2017-07-29T19:39:54.815Z,2.30
2017-07-29T19:42:24.322Z,4.80
2017-07-29T19:44:53.871Z,6.50
2017-07-29T19:47:23.387Z,6.33
2017-07-29T19:49:52.907Z,5.00
2017-07-29T19:52:22.409Z,4.10
2017-07-29T19:54:52.096Z,3.80
2017-07-29T19:57:21.578Z,3.37
2017-07-29T19:59:51.144Z,2.87
2017-07-29T20:02:20.616Z,3.20
2017-07-29T20:04:50.129Z,2.70
2017-07-29T20:07:19.628Z,2.63
2017-07-29T20:09:49.167Z,2.40
2017-07-29T20:12:18.676Z,2.47
2017-07-29T20:14:48.182Z,2.33
2017-07-29T20:17:17.783Z,2.67
2017-07-29T20:19:47.271Z,2.00
2017-07-29T20:22:16.810Z,2.20
2017-07-29T20:24:46.329Z,2.53
2017-07-29T20:27:15.832Z,2.00
2017-07-29T20:29:45.325Z,2.40
2017-07-29T20:32:14.851Z,2.47
2017-07-29T20:34:44.466Z,2.30
2017-07-29T20:37:14.021Z,2.27
2017-07-29T20:39:44.282Z,2.30
2017-07-29T20:42:13.802Z,2.50
2017-07-29T20:44:43.297Z,2.60
2017-07-29T20:47:12.797Z,2.20
2017-07-29T20:49:42.295Z,2.20
2017-07-29T20:52:11.815Z,2.50
2017-07-29T20:54:41.332Z,2.20
2017-07-29T20:57:10.873Z,2.53
2017-07-29T20:59:40.366Z,2.50
2017-07-29T21:02:09.921Z,2.80
2017-07-29T21:04:39.409Z,2.73
2017-07-29T21:07:08.941Z,2.50
2017-07-29T21:09:38.434Z,2.57
2017-07-29T21:12:07.974Z,2.23
2017-07-29T21:14:37.497Z,2.47
2017-07-29T21:17:06.972Z,2.37
2017-07-29T21:19:36.500Z,2.30
2017-07-29T21:22:05.966Z,2.57
2017-07-29T21:24:35.476Z,2.70
2017-07-29T21:27:05.128Z,2.40
2017-07-29T21:29:34.652Z,2.57
2017-07-29T21:32:04.178Z,2.40
2017-07-29T21:34:34.401Z,2.40
2017-07-29T21:37:03.890Z,2.40
2017-07-29T21:39:33.518Z,2.60
2017-07-29T21:42:03.001Z,2.80
2017-07-29T21:44:33.034Z,2.90
2017-07-29T21:47:02.542Z,3.20
2017-07-29T21:49:32.057Z,2.50
2017-07-29T21:52:01.579Z,2.70
2017-07-29T21:54:31.134Z,2.40
2017-07-29T21:57:00.631Z,2.87
2017-07-29T21:59:30.169Z,2.60
2017-07-29T22:01:59.670Z,2.77
2017-07-29T22:04:29.178Z,3.03
2017-07-29T22:06:58.681Z,3.17
2017-07-29T22:09:28.180Z,3.00
2017-07-29T22:11:57.637Z,2.90
2017-07-29T22:14:27.194Z,3.13
2017-07-29T22:16:57.452Z,2.70
2017-07-29T22:19:26.948Z,3.13
2017-07-29T22:21:56.454Z,3.50
2017-07-29T22:24:25.963Z,3.50
2017-07-29T22:26:55.470Z,3.87
2017-07-29T22:29:24.955Z,2.97
2017-07-29T22:31:54.459Z,2.90
2017-07-29T22:34:24.092Z,3.30
2017-07-29T22:36:53.597Z,3.20
2017-07-29T22:39:23.105Z,2.70
2017-07-29T22:41:52.916Z,3.13
2017-07-29T22:44:22.371Z,2.60
2017-07-29T22:46:51.900Z,2.90
2017-07-29T22:49:21.410Z,3.17
2017-07-29T22:51:50.912Z,2.90
2017-07-29T22:54:20.437Z,3.00
2017-07-29T22:56:49.940Z,2.90
2017-07-29T22:59:19.466Z,2.93
2017-07-29T23:01:49.392Z,3.10
2017-07-29T23:04:18.970Z,2.90
2017-07-29T23:06:48.448Z,2.90
2017-07-29T23:09:17.954Z,3.33
2017-07-29T23:11:47.485Z,3.10
2017-07-29T23:14:16.985Z,3.07
2017-07-29T23:16:46.491Z,2.80
2017-07-29T23:19:16.032Z,3.13
2017-07-29T23:21:45.509Z,2.97
2017-07-29T23:24:15.073Z,2.93
2017-07-29T23:26:44.650Z,3.10
2017-07-29T23:29:14.156Z,2.60
2017-07-29T23:31:43.669Z,2.73
2017-07-29T23:34:13.189Z,2.90
2017-07-29T23:36:42.675Z,2.77
2017-07-29T23:39:12.291Z,2.90
2017-07-29T23:41:41.777Z,2.77
2017-07-29T23:44:11.298Z,3.23
2017-07-29T23:46:40.820Z,2.80
2017-07-29T23:49:10.325Z,2.80
2017-07-29T23:51:39.846Z,2.90
2017-07-29T23:54:09.357Z,3.10
2017-07-29T23:56:38.849Z,2.93
2017-07-29T23:59:08.473Z,3.13
